Airfield :
LOGIN :

Register | Disclaimer

   EN    FR    IT 

 










Legend :    VFR   Marginal VFR   IFR   Intensive IFR   Very Intensive IFR
Visi :
Ceiling :
>= 8 km
>= 3000ft
5 to 8 km
1000 to 3000 ft
1500m to 5 km
500 to 1000 ft
800 to 1500m
200 to 500 ft
< 800m
< 200 ft
Symbols :   Thunderstorms  Fog  Heavy snow  Heavy precipitations  Wind > 20 kt
SIGMETs :     Misc.  Thunderstorms  Icing  Turbulence  Mountain Waves  Volcanic Ashes







- Airport Elevation : 1822 ft


ETSL - Lechfeld AB

CURRENT METAR :
  • 231500Z 24007KT 9999 FEW010 BKN035 08/05 Q1022 BLU FCST CANCEL

EXPIRED METARs :
  • 231420Z 26006KT 9999 FEW010 BKN040 08/05 Q1022 BLU BLU TEMPO WHT
  • 231320Z 23011KT 9999 FEW010 SCT030 BKN050 07/05 Q1021 BLU BLU TEMPO WHT
  • 231220Z 26008KT 9999 -SHRA FEW008 SCT015 BKN025 08/05 Q1021 BLU BLU TEMPO WHT

TAF TAF ETSL
Valid from the 23 at 14:00 until the 23 at 23:00 UTC


231320Z 2314/2323 23010KT 9999 NSW FEW015 BKN035
TEMPO 2314/2316 26012G22KT 7000 -RA SCT007 BKN015 CANCEL 1500 BY ETGL
No reported NOTAMs for that airfield.



MET'MAP, your aeronautical weather chart ! - Copyright ORBIFLY December 2007 - Disclaimer

ORBIFLY MET'MAP TEAM :

Programming & Development : Alexandra Zaïnal
Concept & Development : Baudouin d'Aumeries
Co-Development & Prog : Marc-Olivier Méhu
Technical & hardware support : Manuel Goepfert

Contact : metmap@orbifly.com




SOURCES & CREDITS :

   NOAA